createdAt,value
2023-03-25T00:01:50.622Z,94932.47
2023-03-25T00:04:18.594Z,94927.94
2023-03-25T00:06:50.790Z,94928.53
2023-03-25T00:09:18.477Z,94926.13
2023-03-25T00:11:46.127Z,94920.19
2023-03-25T00:14:17.002Z,94916.44
2023-03-25T00:16:45.814Z,94914.25
2023-03-25T00:19:13.722Z,94907.19
2023-03-25T00:21:44.556Z,94911.53
2023-03-25T00:24:17.778Z,94910.63
2023-03-25T00:26:46.152Z,94913.78
2023-03-25T00:29:14.178Z,94907.56
2023-03-25T00:31:42.271Z,94912.69
2023-03-25T00:34:14.251Z,94907.84
2023-03-25T00:36:43.728Z,94900.44
2023-03-25T00:39:13.162Z,94896.66
2023-03-25T00:41:42.065Z,94898.69
2023-03-25T00:44:14.294Z,94887.47
2023-03-25T00:46:42.114Z,94885.34
2023-03-25T00:49:10.760Z,94891.22
2023-03-25T00:51:52.813Z,94872.44
2023-03-25T00:54:23.081Z,94884.03
2023-03-25T00:56:50.959Z,94888.41
2023-03-25T00:59:18.772Z,94890.16
2023-03-25T01:01:47.144Z,94879.25
2023-03-25T01:04:16.686Z,94882.09
2023-03-25T01:06:44.852Z,94882.47
2023-03-25T01:09:15.484Z,94894.47
2023-03-25T01:11:48.658Z,94874.63
2023-03-25T01:14:18.871Z,94879.84
2023-03-25T01:16:46.738Z,94876.03
2023-03-25T01:19:15.288Z,94885.47
2023-03-25T01:21:46.169Z,94869.13
2023-03-25T01:24:15.727Z,94892.78
2023-03-25T01:26:45.728Z,94876.75
2023-03-25T01:29:17.204Z,94872.34
2023-03-25T01:31:45.524Z,94884.09
2023-03-25T01:34:14.229Z,94887.16
2023-03-25T01:36:46.563Z,94866.50
2023-03-25T01:39:18.676Z,94875.63
2023-03-25T01:41:51.540Z,94867.50
2023-03-25T01:44:57.392Z,94874.81
2023-03-25T01:47:27.731Z,94869.63
2023-03-25T01:49:55.649Z,94873.66
2023-03-25T01:52:29.560Z,94879.75
2023-03-25T01:54:59.682Z,94862.81
2023-03-25T01:57:29.415Z,94862.22
2023-03-25T02:00:00.403Z,94866.03
2023-03-25T02:02:35.018Z,94869.03
2023-03-25T02:05:10.549Z,94872.84
2023-03-25T02:07:42.777Z,94860.09
2023-03-25T02:10:12.399Z,94854.97
2023-03-25T02:12:40.855Z,94857.69
2023-03-25T02:15:10.508Z,94856.88
2023-03-25T02:17:55.640Z,94848.53
2023-03-25T02:20:48.575Z,94849.81
2023-03-25T02:23:48.765Z,94845.78
2023-03-25T02:26:36.608Z,94834.91
2023-03-25T02:29:12.665Z,94842.69
2023-03-25T02:32:02.346Z,94847.69
2023-03-25T02:34:56.770Z,94846.56
2023-03-25T02:37:49.031Z,94849.59
2023-03-25T02:40:19.596Z,94854.78
2023-03-25T02:42:53.168Z,94857.47
2023-03-25T02:45:27.992Z,94856.16
2023-03-25T02:48:02.580Z,94852.41
2023-03-25T02:50:36.259Z,94856.97
2023-03-25T02:53:10.951Z,94865.13
2023-03-25T02:55:41.465Z,94865.56
2023-03-25T02:58:13.040Z,94853.66
2023-03-25T03:00:41.077Z,94861.38
2023-03-25T03:03:11.000Z,94853.22
2023-03-25T03:05:43.810Z,94866.31
2023-03-25T03:08:37.079Z,94854.84
2023-03-25T03:11:13.277Z,94851.25
2023-03-25T03:13:57.731Z,94851.19
2023-03-25T03:16:34.789Z,94851.31
2023-03-25T03:19:14.323Z,94840.97
2023-03-25T03:21:51.441Z,94841.03
2023-03-25T03:24:25.584Z,94829.69
2023-03-25T03:26:59.725Z,94818.59
2023-03-25T03:29:32.159Z,94859.00
2023-03-25T03:32:07.352Z,94849.06
2023-03-25T03:34:45.004Z,94854.81
2023-03-25T03:37:15.351Z,94857.81
2023-03-25T03:39:47.224Z,94852.13
2023-03-25T03:42:20.496Z,94851.00
2023-03-25T03:44:54.304Z,94857.81
2023-03-25T03:47:26.204Z,94861.31
2023-03-25T03:50:01.327Z,94869.19
2023-03-25T03:52:34.520Z,94860.63
2023-03-25T03:55:10.771Z,94856.81
2023-03-25T03:57:45.518Z,94865.84
2023-03-25T04:00:19.266Z,94872.44
2023-03-25T04:02:51.593Z,94877.03
2023-03-25T04:05:23.219Z,94884.41
2023-03-25T04:07:57.020Z,94889.31
2023-03-25T04:10:34.961Z,94892.22
2023-03-25T04:13:07.141Z,94882.28
2023-03-25T04:15:34.918Z,94882.00
2023-03-25T04:18:03.692Z,94893.13
2023-03-25T04:20:37.571Z,94896.34
2023-03-25T04:23:05.848Z,94897.44
2023-03-25T04:25:34.904Z,94904.94
2023-03-25T04:28:02.565Z,94892.00
2023-03-25T04:30:31.134Z,94901.72
2023-03-25T04:33:00.648Z,94899.81
2023-03-25T04:35:32.960Z,94897.16
2023-03-25T04:38:01.690Z,94894.97
2023-03-25T04:40:30.342Z,94901.94
2023-03-25T04:42:59.415Z,94914.13
2023-03-25T04:45:28.746Z,94902.69
2023-03-25T04:47:59.660Z,94905.59
2023-03-25T04:50:29.246Z,94914.00
2023-03-25T04:53:01.359Z,94910.47
2023-03-25T04:55:29.977Z,94902.25
2023-03-25T04:57:59.130Z,94896.84
2023-03-25T05:00:27.163Z,94904.91
2023-03-25T05:02:56.651Z,94892.53
2023-03-25T05:05:26.089Z,94895.03
2023-03-25T05:07:58.166Z,94899.66
2023-03-25T05:10:29.480Z,94893.75
2023-03-25T05:13:01.404Z,94891.88
2023-03-25T05:15:30.438Z,94894.13
2023-03-25T05:17:58.196Z,94903.84
2023-03-25T05:20:29.278Z,94905.50
2023-03-25T05:22:57.499Z,94908.81
2023-03-25T05:25:26.475Z,94903.69
2023-03-25T05:27:54.447Z,94903.69
2023-03-25T05:30:26.463Z,94897.97
2023-03-25T05:32:56.689Z,94906.59
2023-03-25T05:35:26.654Z,94912.75
2023-03-25T05:37:57.619Z,94920.00
2023-03-25T05:40:25.379Z,94923.34
2023-03-25T05:42:54.728Z,94916.25
2023-03-25T05:45:24.352Z,94924.31
2023-03-25T05:47:52.188Z,94942.59
2023-03-25T05:50:23.027Z,94931.78
2023-03-25T05:52:51.809Z,94924.47
2023-03-25T05:55:25.407Z,94914.94
2023-03-25T05:57:53.171Z,94916.84
2023-03-25T06:00:23.801Z,94942.03
2023-03-25T06:02:53.565Z,94946.34
2023-03-25T06:05:23.888Z,94927.44
2023-03-25T06:07:52.070Z,94936.06
2023-03-25T06:10:20.857Z,94941.47
2023-03-25T06:12:49.951Z,94953.38
2023-03-25T06:15:21.144Z,94953.09
2023-03-25T06:17:48.885Z,94966.53
2023-03-25T06:20:19.441Z,94962.91
2023-03-25T06:22:47.471Z,94962.53
2023-03-25T06:25:19.023Z,94965.09
2023-03-25T06:27:46.795Z,94968.34
2023-03-25T06:30:20.817Z,94968.69
2023-03-25T06:32:50.676Z,94967.59
2023-03-25T06:35:21.409Z,94979.78
2023-03-25T06:37:50.296Z,94970.13
2023-03-25T06:40:18.227Z,94986.13
2023-03-25T06:42:46.141Z,94989.66
2023-03-25T06:45:13.966Z,94998.72
2023-03-25T06:47:41.741Z,94994.22
2023-03-25T06:50:10.324Z,95007.81
2023-03-25T06:52:39.413Z,95011.13
2023-03-25T06:55:07.847Z,95017.09
2023-03-25T06:57:35.980Z,95010.63
2023-03-25T07:00:05.745Z,95010.63
2023-03-25T07:02:33.487Z,95024.69
2023-03-25T07:05:01.281Z,95020.88
2023-03-25T07:07:32.062Z,95024.13
2023-03-25T07:10:01.238Z,95021.44
2023-03-25T07:12:29.011Z,95029.56
2023-03-25T07:14:59.038Z,95026.34
2023-03-25T07:17:27.658Z,95023.41
2023-03-25T07:19:55.596Z,95026.81
2023-03-25T07:22:23.284Z,95034.59
2023-03-25T07:24:52.151Z,95031.94
2023-03-25T07:27:21.237Z,95032.66
2023-03-25T07:29:48.928Z,95039.66
2023-03-25T07:32:16.683Z,95047.50
2023-03-25T07:34:45.507Z,95044.56
2023-03-25T07:37:13.187Z,95039.47
2023-03-25T07:39:41.001Z,95056.22
2023-03-25T07:42:08.714Z,95048.31
2023-03-25T07:44:37.795Z,95051.50
2023-03-25T07:47:05.623Z,95049.81
2023-03-25T07:49:35.958Z,95056.06
2023-03-25T07:52:03.681Z,95048.09
2023-03-25T07:54:31.374Z,95063.59
2023-03-25T07:56:59.242Z,95070.63
2023-03-25T07:59:29.278Z,95067.94
2023-03-25T08:01:58.976Z,95053.91
2023-03-25T08:04:27.051Z,95056.06
2023-03-25T08:06:55.488Z,95060.13
2023-03-25T08:09:23.296Z,95053.78
2023-03-25T08:11:51.458Z,95052.13
2023-03-25T08:14:19.671Z,95054.97
2023-03-25T08:16:47.689Z,95055.44
2023-03-25T08:19:19.706Z,95050.69
2023-03-25T08:21:50.195Z,95048.56
2023-03-25T08:24:17.869Z,95051.38
2023-03-25T08:26:45.601Z,95049.47
2023-03-25T08:29:17.513Z,95047.16
2023-03-25T08:31:52.486Z,95036.53
2023-03-25T08:34:29.378Z,95038.19
2023-03-25T08:36:57.965Z,95026.50
2023-03-25T08:39:29.971Z,95040.75
2023-03-25T08:41:59.293Z,95046.25
2023-03-25T08:44:27.138Z,95042.03
2023-03-25T08:46:54.870Z,95036.28
2023-03-25T08:49:24.018Z,95044.38
2023-03-25T08:51:53.436Z,95039.09
2023-03-25T08:54:26.601Z,95039.00
2023-03-25T08:56:54.958Z,95042.03
2023-03-25T08:59:22.693Z,95036.53
2023-03-25T09:01:56.329Z,95038.59
2023-03-25T09:04:30.770Z,95035.59
2023-03-25T09:07:11.894Z,95032.78
2023-03-25T09:09:40.621Z,95046.34
2023-03-25T09:12:09.268Z,95039.19
2023-03-25T09:14:37.339Z,95028.19
2023-03-25T09:17:06.048Z,95039.25
2023-03-25T09:19:37.853Z,95022.53
2023-03-25T09:22:05.972Z,95044.22
2023-03-25T09:24:34.067Z,95038.78
2023-03-25T09:27:02.178Z,95048.69
2023-03-25T09:29:30.539Z,95036.09
2023-03-25T09:31:59.790Z,95032.59
2023-03-25T09:34:28.259Z,95034.00
2023-03-25T09:36:57.763Z,95019.88
2023-03-25T09:39:25.552Z,95013.34
2023-03-25T09:42:07.136Z,95015.88
2023-03-25T09:44:40.054Z,95001.47
2023-03-25T09:47:10.502Z,95012.16
2023-03-25T09:49:46.444Z,95011.22
2023-03-25T09:52:19.550Z,94994.16
2023-03-25T09:54:51.087Z,95009.44
2023-03-25T09:57:29.109Z,94999.06
2023-03-25T09:59:58.838Z,94990.66
2023-03-25T10:02:39.359Z,95000.16
2023-03-25T10:05:47.361Z,94983.94
2023-03-25T10:08:27.481Z,94983.69
2023-03-25T10:11:04.669Z,94993.78
2023-03-25T10:13:41.973Z,94970.50
2023-03-25T10:16:18.086Z,94975.34
2023-03-25T10:19:04.188Z,94957.25
2023-03-25T10:21:40.844Z,94966.34
2023-03-25T10:24:22.692Z,94960.56
2023-03-25T10:26:55.937Z,94941.25
2023-03-25T10:29:29.065Z,94953.34
2023-03-25T10:32:01.750Z,94942.16
2023-03-25T10:34:37.023Z,94960.09
2023-03-25T10:37:12.382Z,94968.19
2023-03-25T10:39:45.496Z,94943.56
2023-03-25T10:42:21.762Z,94943.97
2023-03-25T10:44:51.080Z,94952.03
2023-03-25T10:47:21.896Z,94959.44
2023-03-25T10:49:52.382Z,94965.88
2023-03-25T10:52:20.571Z,94959.44
2023-03-25T10:54:53.027Z,94951.28
2023-03-25T10:57:26.262Z,94959.03
2023-03-25T11:00:06.699Z,94961.34
2023-03-25T11:02:35.116Z,94949.19
2023-03-25T11:05:06.514Z,94952.63
2023-03-25T11:07:37.351Z,94942.81
2023-03-25T11:10:12.340Z,94930.81
2023-03-25T11:12:43.729Z,94937.94
2023-03-25T11:15:15.158Z,94918.59
2023-03-25T11:17:43.258Z,94932.44
2023-03-25T11:20:19.769Z,94918.16
2023-03-25T11:22:53.659Z,94916.25
2023-03-25T11:25:27.701Z,94924.56
2023-03-25T11:27:59.456Z,94917.84
2023-03-25T11:30:27.546Z,94919.88
2023-03-25T11:33:02.279Z,94910.41
2023-03-25T11:35:32.134Z,94904.16
2023-03-25T11:38:02.734Z,94901.34
2023-03-25T11:40:32.967Z,94901.59
2023-03-25T11:43:04.384Z,94895.78
2023-03-25T11:45:35.854Z,94889.38
2023-03-25T11:48:11.916Z,94889.41
2023-03-25T11:50:39.769Z,94885.16
2023-03-25T11:53:07.537Z,94877.63
2023-03-25T11:55:44.951Z,94886.94
2023-03-25T11:58:17.315Z,94886.38
2023-03-25T12:00:49.060Z,94887.44
2023-03-25T12:03:24.641Z,94899.44
2023-03-25T12:06:00.853Z,94859.16
2023-03-25T12:08:31.749Z,94858.19
2023-03-25T12:11:06.856Z,94883.75
2023-03-25T12:13:50.449Z,94860.75
2023-03-25T12:16:28.573Z,94858.28
2023-03-25T12:19:06.896Z,94864.28
2023-03-25T12:21:58.686Z,94872.44
2023-03-25T12:24:44.377Z,94860.91
2023-03-25T12:27:29.320Z,94863.41
2023-03-25T12:30:06.140Z,94869.66
2023-03-25T12:32:40.533Z,94864.31
2023-03-25T12:35:23.081Z,94874.03
2023-03-25T12:38:06.529Z,94862.41
2023-03-25T12:40:45.977Z,94881.72
2023-03-25T12:43:19.944Z,94881.38
2023-03-25T12:46:00.367Z,94878.69
2023-03-25T12:48:50.876Z,94883.38
2023-03-25T12:51:27.651Z,94879.97
2023-03-25T12:54:08.736Z,94877.69
2023-03-25T12:56:48.334Z,94859.63
2023-03-25T12:59:32.702Z,94853.00
2023-03-25T13:02:10.482Z,94864.47
2023-03-25T13:05:05.615Z,94847.78
2023-03-25T13:07:37.669Z,94870.75
2023-03-25T13:10:15.103Z,94863.91
2023-03-25T13:12:47.936Z,94865.31
2023-03-25T13:15:26.728Z,94864.56
2023-03-25T13:17:59.761Z,94871.44
2023-03-25T13:20:30.978Z,94857.22
2023-03-25T13:23:02.244Z,94869.59
2023-03-25T13:25:36.621Z,94862.47
2023-03-25T13:28:10.885Z,94874.28
2023-03-25T13:30:44.462Z,94868.53
2023-03-25T13:33:16.595Z,94849.19
2023-03-25T13:35:48.547Z,94878.19
2023-03-25T13:38:22.063Z,94893.22
2023-03-25T13:40:55.634Z,94886.34
2023-03-25T13:43:29.996Z,94874.19
2023-03-25T13:46:06.158Z,94875.19
2023-03-25T13:48:41.850Z,94873.84
2023-03-25T13:51:11.452Z,94878.59
2023-03-25T13:53:46.459Z,94883.34
2023-03-25T13:57:05.312Z,94879.34
2023-03-25T14:00:05.920Z,94860.06
2023-03-25T14:02:45.495Z,94879.97
2023-03-25T14:05:45.428Z,94883.25
2023-03-25T14:08:37.117Z,94883.34
2023-03-25T14:11:22.165Z,94895.41
2023-03-25T14:13:54.580Z,94859.09
2023-03-25T14:16:26.204Z,94900.06
2023-03-25T14:19:00.025Z,94874.75
2023-03-25T14:21:46.118Z,94867.31
2023-03-25T14:24:17.943Z,94868.94
2023-03-25T14:26:55.268Z,94879.72
2023-03-25T14:29:39.873Z,94864.28
2023-03-25T14:32:28.034Z,94869.25
2023-03-25T14:35:36.624Z,94857.13
2023-03-25T14:38:36.451Z,94858.56
2023-03-25T14:41:05.174Z,94845.13
2023-03-25T14:43:37.380Z,94863.66
2023-03-25T14:46:06.869Z,94857.97
2023-03-25T14:48:37.671Z,94862.28
2023-03-25T14:51:22.338Z,94851.81
2023-03-25T14:53:56.232Z,94872.06
2023-03-25T14:56:26.779Z,94842.94
2023-03-25T14:58:58.444Z,94843.56
2023-03-25T15:01:34.299Z,94847.53
2023-03-25T15:04:15.464Z,94860.00
2023-03-25T15:06:44.656Z,94854.66
2023-03-25T15:09:17.917Z,94853.91
2023-03-25T15:11:56.275Z,94831.66
2023-03-25T15:14:29.021Z,94839.22
2023-03-25T15:17:02.808Z,94845.34
2023-03-25T15:19:30.576Z,94849.69
2023-03-25T15:22:20.843Z,94847.06
2023-03-25T15:36:40.580Z,94853.31
2023-03-25T15:39:36.770Z,94835.00
2023-03-25T15:42:34.406Z,94838.59
2023-03-25T15:45:20.834Z,94842.38
2023-03-25T15:48:04.323Z,94833.84
2023-03-25T15:50:42.024Z,94862.13
2023-03-25T15:53:45.493Z,94849.91
2023-03-25T15:56:15.816Z,94859.44
2023-03-25T15:58:52.427Z,94856.84
2023-03-25T16:01:28.265Z,94853.03
2023-03-25T16:04:03.247Z,94869.81
2023-03-25T16:06:34.889Z,94849.06
2023-03-25T16:09:03.275Z,94853.19
2023-03-25T16:11:31.345Z,94862.00
2023-03-25T16:14:12.427Z,94854.25
2023-03-25T16:16:45.227Z,94832.69
2023-03-25T16:19:20.716Z,94865.31
2023-03-25T16:21:49.925Z,94831.84
2023-03-25T16:24:21.528Z,94818.75
2023-03-25T16:26:51.183Z,94848.50
2023-03-25T16:29:22.806Z,94866.25
2023-03-25T16:31:59.156Z,94865.66
2023-03-25T16:34:27.703Z,94864.91
2023-03-25T16:36:56.735Z,94881.34
2023-03-25T16:39:28.027Z,94862.66
2023-03-25T16:42:02.834Z,94879.09
2023-03-25T16:44:32.049Z,94879.53
2023-03-25T16:47:02.265Z,94865.94
2023-03-25T16:49:33.704Z,94877.88
2023-03-25T16:52:04.429Z,94886.75
2023-03-25T16:54:38.916Z,94868.22
2023-03-25T16:57:08.337Z,94889.47
2023-03-25T16:59:39.060Z,94895.69
2023-03-25T17:02:25.490Z,94913.25
2023-03-25T17:04:56.534Z,94915.97
2023-03-25T17:07:28.839Z,94905.03
2023-03-25T17:09:59.081Z,94913.06
2023-03-25T17:12:29.311Z,94914.34
2023-03-25T17:15:06.711Z,94909.00
2023-03-25T17:17:41.746Z,94898.16
2023-03-25T17:20:18.998Z,94917.31
2023-03-25T17:22:59.530Z,94921.81
2023-03-25T17:25:32.123Z,94922.19
2023-03-25T17:28:08.040Z,94925.16
2023-03-25T17:30:42.925Z,94934.28
2023-03-25T17:33:12.711Z,94910.84
2023-03-25T17:35:42.453Z,94934.81
2023-03-25T17:38:25.466Z,94934.66
2023-03-25T17:41:06.356Z,94939.66
2023-03-25T17:43:36.853Z,94944.69
2023-03-25T17:46:07.427Z,94938.31
2023-03-25T17:48:36.390Z,94921.63
2023-03-25T17:51:04.601Z,94939.75
2023-03-25T17:53:32.535Z,94939.56
2023-03-25T17:56:03.461Z,94952.66
2023-03-25T17:58:31.362Z,94950.00
2023-03-25T18:00:59.955Z,94944.34
2023-03-25T18:03:32.289Z,94940.06
2023-03-25T18:06:00.913Z,94939.44
2023-03-25T18:08:29.418Z,94951.47
2023-03-25T18:10:58.697Z,94949.31
2023-03-25T18:13:27.209Z,94961.00
2023-03-25T18:15:55.740Z,94958.00
2023-03-25T18:18:25.678Z,94962.94
2023-03-25T18:20:59.319Z,94971.66
2023-03-25T18:23:28.347Z,94983.31
2023-03-25T18:26:01.717Z,94987.69
2023-03-25T18:28:29.496Z,94978.25
2023-03-25T18:30:59.529Z,94982.66
2023-03-25T18:33:27.249Z,94996.75
2023-03-25T18:35:59.342Z,95003.16
2023-03-25T18:38:28.761Z,94992.13
2023-03-25T18:41:00.388Z,94993.00
2023-03-25T18:43:28.079Z,94988.72
2023-03-25T18:45:55.813Z,94990.31
2023-03-25T18:48:23.752Z,94989.19
2023-03-25T18:50:54.526Z,94978.97
2023-03-25T18:53:25.697Z,94998.19
2023-03-25T18:55:54.562Z,94990.47
2023-03-25T18:58:24.305Z,94993.53
2023-03-25T19:00:53.748Z,94973.72
2023-03-25T19:03:30.210Z,95007.09
2023-03-25T19:05:59.542Z,94986.34
2023-03-25T19:08:29.272Z,94992.03
2023-03-25T19:11:07.872Z,94988.72
2023-03-25T19:13:40.335Z,94994.66
2023-03-25T19:16:08.731Z,94986.41
2023-03-25T19:18:36.637Z,94992.56
2023-03-25T19:21:04.623Z,94992.00
2023-03-25T19:23:35.102Z,95009.06
2023-03-25T19:26:03.400Z,95001.75
2023-03-25T19:28:31.108Z,95008.25
2023-03-25T19:31:01.769Z,94998.84
2023-03-25T19:33:31.054Z,94989.09
2023-03-25T19:36:01.288Z,95003.19
2023-03-25T19:38:30.055Z,95002.44
2023-03-25T19:41:08.291Z,95000.22
2023-03-25T19:43:36.790Z,94996.22
2023-03-25T19:46:07.111Z,95001.13
2023-03-25T19:48:36.252Z,95005.63
2023-03-25T19:51:06.942Z,95009.69
2023-03-25T19:53:34.876Z,95014.53
2023-03-25T19:56:03.543Z,95001.81
2023-03-25T19:58:34.815Z,94998.06
2023-03-25T20:01:06.607Z,95000.25
2023-03-25T20:03:36.262Z,95000.31
2023-03-25T20:06:06.159Z,94990.06
2023-03-25T20:08:34.176Z,94989.78
2023-03-25T20:11:09.390Z,94995.78
2023-03-25T20:13:39.109Z,94989.00
2023-03-25T20:16:08.298Z,94999.28
2023-03-25T20:18:36.468Z,95004.94
2023-03-25T20:21:07.793Z,95001.72
2023-03-25T20:23:35.768Z,95003.66
2023-03-25T20:26:03.647Z,95000.94
2023-03-25T20:28:31.867Z,94987.69
2023-03-25T20:31:01.612Z,94998.72
2023-03-25T20:33:29.646Z,95005.78
2023-03-25T20:35:57.411Z,95004.22
2023-03-25T20:38:25.234Z,95006.69
2023-03-25T20:40:55.598Z,95001.56
2023-03-25T20:43:23.670Z,95002.38
2023-03-25T20:45:55.591Z,95012.66
2023-03-25T20:48:26.303Z,95014.31
2023-03-25T20:51:00.735Z,95016.25
2023-03-25T20:53:29.544Z,95014.88
2023-03-25T20:55:58.013Z,95014.03
2023-03-25T20:58:26.771Z,95019.16
2023-03-25T21:01:01.676Z,95026.72
2023-03-25T21:03:31.289Z,95014.59
2023-03-25T21:06:07.468Z,95017.31
2023-03-25T21:08:42.465Z,95021.38
2023-03-25T21:11:10.429Z,95024.63
2023-03-25T21:13:38.274Z,95031.91
2023-03-25T21:16:07.044Z,95034.34
2023-03-25T21:18:36.901Z,95028.22
2023-03-25T21:21:05.198Z,95030.09
2023-03-25T21:23:32.960Z,95031.19
2023-03-25T21:26:03.965Z,95023.91
2023-03-25T21:28:32.953Z,95029.03
2023-03-25T21:31:03.218Z,95026.88
2023-03-25T21:33:33.166Z,95021.16
2023-03-25T21:36:02.515Z,95017.69
2023-03-25T21:38:30.492Z,95018.53
2023-03-25T21:40:59.450Z,95006.63
2023-03-25T21:43:28.519Z,95001.75
2023-03-25T21:45:56.447Z,95013.38
2023-03-25T21:48:24.917Z,94999.09
2023-03-25T21:50:56.554Z,95001.53
2023-03-25T21:53:31.122Z,94991.78
2023-03-25T21:56:03.824Z,95000.19
2023-03-25T21:58:36.171Z,95001.03
2023-03-25T22:01:05.954Z,95005.91
2023-03-25T22:03:37.175Z,94996.19
2023-03-25T22:06:12.157Z,95001.84
2023-03-25T22:08:41.788Z,94995.38
2023-03-25T22:11:11.707Z,94982.44
2023-03-25T22:13:40.042Z,94981.28
2023-03-25T22:16:08.986Z,94989.66
2023-03-25T22:18:37.063Z,94985.38
2023-03-25T22:21:10.678Z,94989.44
2023-03-25T22:23:40.108Z,94981.63
2023-03-25T22:26:10.961Z,94988.66
2023-03-25T22:28:39.389Z,94994.88
2023-03-25T22:31:11.828Z,94986.75
2023-03-25T22:33:40.344Z,94987.56
2023-03-25T22:36:12.611Z,94988.34
2023-03-25T22:38:40.920Z,94989.13
2023-03-25T22:41:10.241Z,94991.53
2023-03-25T22:43:38.206Z,94987.75
2023-03-25T22:46:07.071Z,94994.16
2023-03-25T22:48:35.164Z,95008.75
2023-03-25T22:51:02.883Z,95002.84
2023-03-25T22:59:47.848Z,95010.34
2023-03-25T23:02:16.674Z,94991.44
2023-03-25T23:04:44.877Z,94992.56
2023-03-25T23:07:13.132Z,94988.47
2023-03-25T23:09:44.166Z,94986.63
2023-03-25T23:12:13.936Z,94983.34
2023-03-25T23:14:49.876Z,94989.34
2023-03-25T23:17:19.554Z,94980.72
2023-03-25T23:19:47.405Z,94978.31
2023-03-25T23:22:16.563Z,94969.66
2023-03-25T23:24:44.674Z,94973.13
2023-03-25T23:27:13.390Z,94967.75
2023-03-25T23:29:41.608Z,94968.22
2023-03-25T23:32:10.177Z,94975.50
2023-03-25T23:34:40.060Z,94982.81
2023-03-25T23:37:09.192Z,94979.00
2023-03-25T23:39:40.426Z,94980.59
2023-03-25T23:42:08.339Z,94981.59
2023-03-25T23:44:36.330Z,94975.91
2023-03-25T23:47:04.719Z,94977.78
2023-03-25T23:49:33.288Z,94988.28
2023-03-25T23:52:02.387Z,94994.25
2023-03-25T23:54:30.112Z,94990.91
2023-03-25T23:56:57.982Z,94993.03
2023-03-25T23:59:28.449Z,94990.00
